sensor_id;sensor_type;location;lat;lon;timestamp;P1;durP1;ratioP1;P2;durP2;ratioP2
12770;SDS011;6449;47.666;9.160;2022-07-30T00:02:27;2.70;;;2.50;;
12770;SDS011;6449;47.666;9.160;2022-07-30T00:07:21;3.72;;;2.33;;
12770;SDS011;6449;47.666;9.160;2022-07-30T00:12:14;2.17;;;2.05;;
12770;SDS011;6449;47.666;9.160;2022-07-30T00:17:08;2.55;;;2.00;;
12770;SDS011;6449;47.666;9.160;2022-07-30T00:22:03;2.33;;;2.13;;
12770;SDS011;6449;47.666;9.160;2022-07-30T00:26:56;2.22;;;2.03;;
12770;SDS011;6449;47.666;9.160;2022-07-30T00:36:51;2.13;;;2.00;;
12770;SDS011;6449;47.666;9.160;2022-07-30T00:41:56;2.53;;;2.33;;
12770;SDS011;6449;47.666;9.160;2022-07-30T00:46:52;2.15;;;2.03;;
12770;SDS011;6449;47.666;9.160;2022-07-30T00:51:46;2.30;;;2.10;;
12770;SDS011;6449;47.666;9.160;2022-07-30T00:56:40;2.17;;;2.08;;
12770;SDS011;6449;47.666;9.160;2022-07-30T01:01:35;3.33;;;2.33;;
12770;SDS011;6449;47.666;9.160;2022-07-30T01:06:29;2.60;;;2.40;;
12770;SDS011;6449;47.666;9.160;2022-07-30T01:11:23;2.72;;;2.53;;
12770;SDS011;6449;47.666;9.160;2022-07-30T01:16:25;2.40;;;2.20;;
12770;SDS011;6449;47.666;9.160;2022-07-30T01:21:22;2.45;;;2.25;;
12770;SDS011;6449;47.666;9.160;2022-07-30T01:26:27;2.80;;;2.50;;
12770;SDS011;6449;47.666;9.160;2022-07-30T01:31:23;2.63;;;2.42;;
12770;SDS011;6449;47.666;9.160;2022-07-30T01:36:19;2.58;;;2.38;;
12770;SDS011;6449;47.666;9.160;2022-07-30T01:41:14;3.33;;;2.50;;
12770;SDS011;6449;47.666;9.160;2022-07-30T01:46:12;3.03;;;2.35;;
12770;SDS011;6449;47.666;9.160;2022-07-30T01:51:09;2.42;;;2.22;;
12770;SDS011;6449;47.666;9.160;2022-07-30T01:56:04;2.55;;;2.35;;
12770;SDS011;6449;47.666;9.160;2022-07-30T02:01:06;2.53;;;2.10;;
12770;SDS011;6449;47.666;9.160;2022-07-30T02:06:02;3.45;;;2.60;;
12770;SDS011;6449;47.666;9.160;2022-07-30T02:11:03;2.45;;;2.22;;
12770;SDS011;6449;47.666;9.160;2022-07-30T02:16:02;3.58;;;2.30;;
12770;SDS011;6449;47.666;9.160;2022-07-30T02:31:08;5.43;;;2.75;;
12770;SDS011;6449;47.666;9.160;2022-07-30T02:36:08;4.50;;;2.92;;
12770;SDS011;6449;47.666;9.160;2022-07-30T02:41:06;3.10;;;2.90;;
12770;SDS011;6449;47.666;9.160;2022-07-30T02:46:03;2.70;;;2.50;;
12770;SDS011;6449;47.666;9.160;2022-07-30T02:51:01;3.10;;;2.80;;
12770;SDS011;6449;47.666;9.160;2022-07-30T02:55:56;2.85;;;2.55;;
12770;SDS011;6449;47.666;9.160;2022-07-30T03:00:53;2.72;;;2.53;;
12770;SDS011;6449;47.666;9.160;2022-07-30T03:05:51;2.80;;;2.60;;
12770;SDS011;6449;47.666;9.160;2022-07-30T03:10:45;2.70;;;2.50;;
12770;SDS011;6449;47.666;9.160;2022-07-30T03:15:41;2.40;;;2.05;;
12770;SDS011;6449;47.666;9.160;2022-07-30T03:20:39;5.03;;;2.55;;
12770;SDS011;6449;47.666;9.160;2022-07-30T03:30:49;2.25;;;2.05;;
12770;SDS011;6449;47.666;9.160;2022-07-30T03:35:44;3.10;;;2.40;;
12770;SDS011;6449;47.666;9.160;2022-07-30T03:40:39;3.38;;;2.50;;
12770;SDS011;6449;47.666;9.160;2022-07-30T03:50:40;2.70;;;2.50;;
12770;SDS011;6449;47.666;9.160;2022-07-30T03:55:34;2.78;;;2.58;;
12770;SDS011;6449;47.666;9.160;2022-07-30T04:00:28;2.67;;;2.47;;
12770;SDS011;6449;47.666;9.160;2022-07-30T04:05:22;3.88;;;2.65;;
12770;SDS011;6449;47.666;9.160;2022-07-30T04:10:17;3.78;;;2.40;;
12770;SDS011;6449;47.666;9.160;2022-07-30T04:15:10;3.25;;;2.50;;
12770;SDS011;6449;47.666;9.160;2022-07-30T04:20:26;2.97;;;2.70;;
12770;SDS011;6449;47.666;9.160;2022-07-30T04:25:29;4.03;;;3.17;;
12770;SDS011;6449;47.666;9.160;2022-07-30T04:30:25;3.30;;;2.95;;
12770;SDS011;6449;47.666;9.160;2022-07-30T04:35:25;3.10;;;2.80;;
12770;SDS011;6449;47.666;9.160;2022-07-30T04:40:40;3.05;;;2.75;;
12770;SDS011;6449;47.666;9.160;2022-07-30T04:45:34;3.28;;;2.67;;
12770;SDS011;6449;47.666;9.160;2022-07-30T04:50:28;2.67;;;2.47;;
12770;SDS011;6449;47.666;9.160;2022-07-30T04:55:26;2.95;;;2.72;;
12770;SDS011;6449;47.666;9.160;2022-07-30T05:00:21;2.83;;;2.58;;
12770;SDS011;6449;47.666;9.160;2022-07-30T05:05:15;2.58;;;2.38;;
12770;SDS011;6449;47.666;9.160;2022-07-30T05:10:11;2.95;;;2.20;;
12770;SDS011;6449;47.666;9.160;2022-07-30T05:15:05;2.65;;;2.40;;
12770;SDS011;6449;47.666;9.160;2022-07-30T05:20:02;2.35;;;2.13;;
12770;SDS011;6449;47.666;9.160;2022-07-30T05:24:57;2.70;;;2.25;;
12770;SDS011;6449;47.666;9.160;2022-07-30T05:29:51;8.13;;;2.63;;
12770;SDS011;6449;47.666;9.160;2022-07-30T05:34:45;2.53;;;2.25;;
12770;SDS011;6449;47.666;9.160;2022-07-30T05:39:41;2.88;;;2.67;;
12770;SDS011;6449;47.666;9.160;2022-07-30T05:44:53;2.13;;;2.03;;
12770;SDS011;6449;47.666;9.160;2022-07-30T05:49:46;2.50;;;2.30;;
12770;SDS011;6449;47.666;9.160;2022-07-30T05:54:41;2.47;;;2.28;;
12770;SDS011;6449;47.666;9.160;2022-07-30T05:59:35;2.47;;;2.28;;
12770;SDS011;6449;47.666;9.160;2022-07-30T06:04:29;3.03;;;2.20;;
12770;SDS011;6449;47.666;9.160;2022-07-30T06:09:23;2.58;;;2.38;;
12770;SDS011;6449;47.666;9.160;2022-07-30T06:14:28;3.88;;;2.40;;
12770;SDS011;6449;47.666;9.160;2022-07-30T06:19:22;2.40;;;2.20;;
12770;SDS011;6449;47.666;9.160;2022-07-30T06:24:16;2.70;;;2.50;;
12770;SDS011;6449;47.666;9.160;2022-07-30T06:29:12;2.78;;;2.58;;
12770;SDS011;6449;47.666;9.160;2022-07-30T06:34:07;2.63;;;2.38;;
12770;SDS011;6449;47.666;9.160;2022-07-30T06:39:01;2.67;;;2.47;;
12770;SDS011;6449;47.666;9.160;2022-07-30T06:43:55;4.45;;;2.88;;
12770;SDS011;6449;47.666;9.160;2022-07-30T06:48:48;3.00;;;2.80;;
12770;SDS011;6449;47.666;9.160;2022-07-30T06:53:43;2.90;;;2.70;;
12770;SDS011;6449;47.666;9.160;2022-07-30T06:58:37;2.90;;;2.53;;
12770;SDS011;6449;47.666;9.160;2022-07-30T07:03:31;3.15;;;2.85;;
12770;SDS011;6449;47.666;9.160;2022-07-30T07:13:32;3.10;;;2.50;;
12770;SDS011;6449;47.666;9.160;2022-07-30T07:18:26;2.58;;;2.28;;
12770;SDS011;6449;47.666;9.160;2022-07-30T07:28:20;2.72;;;2.53;;
12770;SDS011;6449;47.666;9.160;2022-07-30T07:33:24;2.42;;;2.22;;
12770;SDS011;6449;47.666;9.160;2022-07-30T07:38:18;2.45;;;2.28;;
12770;SDS011;6449;47.666;9.160;2022-07-30T07:43:11;3.25;;;2.80;;
12770;SDS011;6449;47.666;9.160;2022-07-30T07:48:06;3.08;;;2.78;;
12770;SDS011;6449;47.666;9.160;2022-07-30T07:53:01;2.92;;;2.53;;
12770;SDS011;6449;47.666;9.160;2022-07-30T07:57:54;3.80;;;2.60;;
12770;SDS011;6449;47.666;9.160;2022-07-30T08:02:48;2.53;;;2.33;;
12770;SDS011;6449;47.666;9.160;2022-07-30T08:12:53;3.08;;;2.78;;
12770;SDS011;6449;47.666;9.160;2022-07-30T08:17:47;4.30;;;2.88;;
12770;SDS011;6449;47.666;9.160;2022-07-30T08:22:40;2.88;;;2.67;;
12770;SDS011;6449;47.666;9.160;2022-07-30T08:27:34;2.88;;;2.50;;
12770;SDS011;6449;47.666;9.160;2022-07-30T08:32:41;2.80;;;2.60;;
12770;SDS011;6449;47.666;9.160;2022-07-30T08:37:36;2.88;;;2.67;;
12770;SDS011;6449;47.666;9.160;2022-07-30T08:42:31;2.88;;;2.63;;
12770;SDS011;6449;47.666;9.160;2022-07-30T08:57:49;3.25;;;2.28;;
12770;SDS011;6449;47.666;9.160;2022-07-30T09:07:53;2.33;;;2.13;;
12770;SDS011;6449;47.666;9.160;2022-07-30T09:17:59;2.70;;;2.47;;
12770;SDS011;6449;47.666;9.160;2022-07-30T09:22:57;2.03;;;1.92;;
12770;SDS011;6449;47.666;9.160;2022-07-30T09:27:53;2.10;;;1.92;;
12770;SDS011;6449;47.666;9.160;2022-07-30T09:32:47;1.83;;;1.73;;
12770;SDS011;6449;47.666;9.160;2022-07-30T09:37:44;2.53;;;1.90;;
12770;SDS011;6449;47.666;9.160;2022-07-30T09:52:49;2.03;;;1.90;;
12770;SDS011;6449;47.666;9.160;2022-07-30T09:57:52;1.90;;;1.80;;
12770;SDS011;6449;47.666;9.160;2022-07-30T10:08:01;2.00;;;1.90;;
12770;SDS011;6449;47.666;9.160;2022-07-30T10:13:06;3.20;;;2.00;;
12770;SDS011;6449;47.666;9.160;2022-07-30T10:23:30;2.22;;;2.03;;
12770;SDS011;6449;47.666;9.160;2022-07-30T10:28:26;2.00;;;1.73;;
12770;SDS011;6449;47.666;9.160;2022-07-30T10:33:30;3.28;;;2.20;;
12770;SDS011;6449;47.666;9.160;2022-07-30T10:38:33;2.25;;;2.05;;
12770;SDS011;6449;47.666;9.160;2022-07-30T10:48:32;1.85;;;1.75;;
12770;SDS011;6449;47.666;9.160;2022-07-30T11:14:22;1.90;;;1.80;;
12770;SDS011;6449;47.666;9.160;2022-07-30T11:20:09;1.70;;;1.60;;
12770;SDS011;6449;47.666;9.160;2022-07-30T11:25:04;1.80;;;1.70;;
12770;SDS011;6449;47.666;9.160;2022-07-30T11:30:05;1.77;;;1.67;;
12770;SDS011;6449;47.666;9.160;2022-07-30T11:46:05;2.05;;;1.88;;
12770;SDS011;6449;47.666;9.160;2022-07-30T11:51:01;1.75;;;1.63;;
12770;SDS011;6449;47.666;9.160;2022-07-30T11:55:56;1.80;;;1.70;;
12770;SDS011;6449;47.666;9.160;2022-07-30T12:01:15;1.77;;;1.67;;
12770;SDS011;6449;47.666;9.160;2022-07-30T12:06:10;1.60;;;1.50;;
12770;SDS011;6449;47.666;9.160;2022-07-30T12:11:10;2.63;;;1.70;;
12770;SDS011;6449;47.666;9.160;2022-07-30T12:16:06;1.60;;;1.50;;
12770;SDS011;6449;47.666;9.160;2022-07-30T12:21:02;1.80;;;1.70;;
12770;SDS011;6449;47.666;9.160;2022-07-30T12:25:58;1.88;;;1.77;;
12770;SDS011;6449;47.666;9.160;2022-07-30T12:30:52;1.60;;;1.50;;
12770;SDS011;6449;47.666;9.160;2022-07-30T12:35:48;1.63;;;1.50;;
12770;SDS011;6449;47.666;9.160;2022-07-30T12:40:52;1.60;;;1.50;;
12770;SDS011;6449;47.666;9.160;2022-07-30T12:45:56;1.50;;;1.40;;
12770;SDS011;6449;47.666;9.160;2022-07-30T12:51:02;1.55;;;1.45;;
12770;SDS011;6449;47.666;9.160;2022-07-30T12:56:09;1.50;;;1.40;;
12770;SDS011;6449;47.666;9.160;2022-07-30T13:06:09;1.10;;;1.10;;
12770;SDS011;6449;47.666;9.160;2022-07-30T13:11:05;1.73;;;1.38;;
12770;SDS011;6449;47.666;9.160;2022-07-30T13:16:01;2.53;;;1.50;;
12770;SDS011;6449;47.666;9.160;2022-07-30T13:20:57;1.52;;;1.42;;
12770;SDS011;6449;47.666;9.160;2022-07-30T13:31:03;2.08;;;1.30;;
12770;SDS011;6449;47.666;9.160;2022-07-30T13:51:52;1.60;;;1.50;;
12770;SDS011;6449;47.666;9.160;2022-07-30T13:56:45;1.50;;;1.40;;
12770;SDS011;6449;47.666;9.160;2022-07-30T14:01:39;1.67;;;1.40;;
12770;SDS011;6449;47.666;9.160;2022-07-30T14:06:34;1.52;;;1.30;;
12770;SDS011;6449;47.666;9.160;2022-07-30T14:12:00;1.50;;;1.40;;
12770;SDS011;6449;47.666;9.160;2022-07-30T14:16:53;1.92;;;1.50;;
12770;SDS011;6449;47.666;9.160;2022-07-30T14:21:49;1.80;;;1.70;;
12770;SDS011;6449;47.666;9.160;2022-07-30T14:26:43;1.20;;;1.20;;
12770;SDS011;6449;47.666;9.160;2022-07-30T14:31:36;1.70;;;1.40;;
12770;SDS011;6449;47.666;9.160;2022-07-30T14:36:30;1.60;;;1.50;;
12770;SDS011;6449;47.666;9.160;2022-07-30T14:41:29;1.65;;;1.55;;
12770;SDS011;6449;47.666;9.160;2022-07-30T14:46:33;1.50;;;1.35;;
12770;SDS011;6449;47.666;9.160;2022-07-30T14:51:42;1.33;;;1.23;;
12770;SDS011;6449;47.666;9.160;2022-07-30T14:56:37;3.40;;;1.52;;
12770;SDS011;6449;47.666;9.160;2022-07-30T15:01:30;2.20;;;1.58;;
12770;SDS011;6449;47.666;9.160;2022-07-30T15:06:23;1.70;;;1.60;;
12770;SDS011;6449;47.666;9.160;2022-07-30T15:11:17;1.52;;;1.42;;
12770;SDS011;6449;47.666;9.160;2022-07-30T15:16:13;1.58;;;1.48;;
12770;SDS011;6449;47.666;9.160;2022-07-30T15:26:08;1.38;;;1.27;;
12770;SDS011;6449;47.666;9.160;2022-07-30T15:36:13;1.55;;;1.38;;
12770;SDS011;6449;47.666;9.160;2022-07-30T15:41:07;1.63;;;1.33;;
12770;SDS011;6449;47.666;9.160;2022-07-30T15:46:17;2.35;;;1.63;;
12770;SDS011;6449;47.666;9.160;2022-07-30T15:56:10;1.60;;;1.50;;
12770;SDS011;6449;47.666;9.160;2022-07-30T16:01:04;1.10;;;1.10;;
12770;SDS011;6449;47.666;9.160;2022-07-30T16:11:10;3.17;;;1.25;;
12770;SDS011;6449;47.666;9.160;2022-07-30T16:16:04;1.90;;;1.45;;
12770;SDS011;6449;47.666;9.160;2022-07-30T16:26:08;1.60;;;1.50;;
12770;SDS011;6449;47.666;9.160;2022-07-30T16:31:03;3.80;;;1.20;;
12770;SDS011;6449;47.666;9.160;2022-07-30T17:06:37;1.55;;;1.17;;
12770;SDS011;6449;47.666;9.160;2022-07-30T17:21:53;1.60;;;1.50;;
12770;SDS011;6449;47.666;9.160;2022-07-30T17:26:47;2.50;;;1.55;;
12770;SDS011;6449;47.666;9.160;2022-07-30T17:31:40;2.25;;;1.33;;
12770;SDS011;6449;47.666;9.160;2022-07-30T17:36:36;1.63;;;1.52;;
12770;SDS011;6449;47.666;9.160;2022-07-30T17:41:32;2.65;;;1.30;;
12770;SDS011;6449;47.666;9.160;2022-07-30T17:46:45;2.15;;;1.20;;
12770;SDS011;6449;47.666;9.160;2022-07-30T17:51:38;2.30;;;1.30;;
12770;SDS011;6449;47.666;9.160;2022-07-30T17:56:35;2.72;;;1.20;;
12770;SDS011;6449;47.666;9.160;2022-07-30T18:01:29;1.40;;;1.30;;
12770;SDS011;6449;47.666;9.160;2022-07-30T18:17:10;3.20;;;1.40;;
12770;SDS011;6449;47.666;9.160;2022-07-30T18:42:46;1.67;;;1.58;;
12770;SDS011;6449;47.666;9.160;2022-07-30T19:08:23;1.73;;;1.40;;
12770;SDS011;6449;47.666;9.160;2022-07-30T19:13:17;1.58;;;1.48;;
12770;SDS011;6449;47.666;9.160;2022-07-30T21:01:56;2.35;;;2.15;;
12770;SDS011;6449;47.666;9.160;2022-07-30T21:06:50;2.47;;;2.00;;
12770;SDS011;6449;47.666;9.160;2022-07-30T21:11:43;2.17;;;1.98;;
12770;SDS011;6449;47.666;9.160;2022-07-30T21:16:51;1.70;;;1.60;;
12770;SDS011;6449;47.666;9.160;2022-07-30T21:22:05;2.85;;;1.73;;
12770;SDS011;6449;47.666;9.160;2022-07-30T21:26:59;1.88;;;1.77;;
12770;SDS011;6449;47.666;9.160;2022-07-30T21:31:54;2.13;;;1.90;;
12770;SDS011;6449;47.666;9.160;2022-07-30T21:36:59;2.15;;;1.95;;
12770;SDS011;6449;47.666;9.160;2022-07-30T21:41:54;3.65;;;2.38;;
12770;SDS011;6449;47.666;9.160;2022-07-30T21:57:10;2.53;;;1.77;;
12770;SDS011;6449;47.666;9.160;2022-07-30T22:02:04;2.72;;;1.85;;
12770;SDS011;6449;47.666;9.160;2022-07-30T22:07:09;2.08;;;1.98;;
12770;SDS011;6449;47.666;9.160;2022-07-30T22:12:02;2.10;;;2.00;;
12770;SDS011;6449;47.666;9.160;2022-07-30T22:17:04;2.40;;;2.20;;
12770;SDS011;6449;47.666;9.160;2022-07-30T22:22:13;2.95;;;2.70;;
12770;SDS011;6449;47.666;9.160;2022-07-30T22:27:18;3.65;;;2.30;;
12770;SDS011;6449;47.666;9.160;2022-07-30T22:32:13;2.50;;;2.25;;
12770;SDS011;6449;47.666;9.160;2022-07-30T22:37:07;2.42;;;2.22;;
12770;SDS011;6449;47.666;9.160;2022-07-30T22:42:06;3.17;;;1.90;;
12770;SDS011;6449;47.666;9.160;2022-07-30T22:47:03;2.55;;;2.30;;
12770;SDS011;6449;47.666;9.160;2022-07-30T22:52:12;3.08;;;2.20;;
12770;SDS011;6449;47.666;9.160;2022-07-30T22:57:12;2.60;;;2.40;;
12770;SDS011;6449;47.666;9.160;2022-07-30T23:02:13;3.20;;;2.90;;
12770;SDS011;6449;47.666;9.160;2022-07-30T23:07:08;3.35;;;3.05;;
12770;SDS011;6449;47.666;9.160;2022-07-30T23:12:10;5.15;;;2.92;;
12770;SDS011;6449;47.666;9.160;2022-07-30T23:17:04;2.28;;;2.15;;
12770;SDS011;6449;47.666;9.160;2022-07-30T23:21:58;2.65;;;2.45;;
12770;SDS011;6449;47.666;9.160;2022-07-30T23:26:51;2.90;;;2.60;;
12770;SDS011;6449;47.666;9.160;2022-07-30T23:31:46;3.08;;;2.50;;
12770;SDS011;6449;47.666;9.160;2022-07-30T23:36:39;2.53;;;2.33;;
12770;SDS011;6449;47.666;9.160;2022-07-30T23:41:33;2.65;;;2.45;;
12770;SDS011;6449;47.666;9.160;2022-07-30T23:46:26;3.00;;;2.70;;
12770;SDS011;6449;47.666;9.160;2022-07-30T23:51:21;2.80;;;2.60;;
12770;SDS011;6449;47.666;9.160;2022-07-30T23:56:15;2.70;;;2.50;;
